sensor_id;sensor_type;location;lat;lon;timestamp;temperature;humidity
63013;DHT22;62113;45.624;11.700;2023-09-19T00:01:57;23.80;74.50
63013;DHT22;62113;45.624;11.700;2023-09-19T00:04:22;23.70;74.50
63013;DHT22;62113;45.624;11.700;2023-09-19T00:06:54;23.70;74.70
63013;DHT22;62113;45.624;11.700;2023-09-19T00:09:19;23.60;74.70
63013;DHT22;62113;45.624;11.700;2023-09-19T00:11:45;23.60;74.80
63013;DHT22;62113;45.624;11.700;2023-09-19T00:14:14;23.60;74.90
63013;DHT22;62113;45.624;11.700;2023-09-19T00:16:40;23.60;75.00
63013;DHT22;62113;45.624;11.700;2023-09-19T00:19:06;23.50;75.00
63013;DHT22;62113;45.624;11.700;2023-09-19T00:21:33;23.50;75.20
63013;DHT22;62113;45.624;11.700;2023-09-19T00:23:58;23.50;75.20
63013;DHT22;62113;45.624;11.700;2023-09-19T00:26:24;23.50;75.10
63013;DHT22;62113;45.624;11.700;2023-09-19T00:28:52;23.50;75.20
63013;DHT22;62113;45.624;11.700;2023-09-19T00:31:18;23.50;75.00
63013;DHT22;62113;45.624;11.700;2023-09-19T00:33:43;23.40;75.00
63013;DHT22;62113;45.624;11.700;2023-09-19T00:36:09;23.40;75.20
63013;DHT22;62113;45.624;11.700;2023-09-19T00:38:34;23.40;75.30
63013;DHT22;62113;45.624;11.700;2023-09-19T00:41:00;23.40;75.10
63013;DHT22;62113;45.624;11.700;2023-09-19T00:43:25;23.40;75.00
63013;DHT22;62113;45.624;11.700;2023-09-19T00:45:53;23.40;75.00
63013;DHT22;62113;45.624;11.700;2023-09-19T00:48:23;23.40;75.00
63013;DHT22;62113;45.624;11.700;2023-09-19T00:50:50;23.40;75.00
63013;DHT22;62113;45.624;11.700;2023-09-19T00:53:17;23.40;75.00
63013;DHT22;62113;45.624;11.700;2023-09-19T00:55:44;23.40;74.90
63013;DHT22;62113;45.624;11.700;2023-09-19T00:58:10;23.40;75.00
63013;DHT22;62113;45.624;11.700;2023-09-19T01:00:36;23.40;74.90
63013;DHT22;62113;45.624;11.700;2023-09-19T01:03:02;23.30;75.00
63013;DHT22;62113;45.624;11.700;2023-09-19T01:05:28;23.30;74.90
63013;DHT22;62113;45.624;11.700;2023-09-19T01:07:54;23.30;74.90
63013;DHT22;62113;45.624;11.700;2023-09-19T01:10:20;23.20;73.40
63013;DHT22;62113;45.624;11.700;2023-09-19T01:17:49;22.90;74.30
63013;DHT22;62113;45.624;11.700;2023-09-19T01:30:39;22.90;75.30
63013;DHT22;62113;45.624;11.700;2023-09-19T01:33:05;23.00;75.10
63013;DHT22;62113;45.624;11.700;2023-09-19T01:35:31;23.00;75.20
63013;DHT22;62113;45.624;11.700;2023-09-19T01:37:58;23.00;75.10
63013;DHT22;62113;45.624;11.700;2023-09-19T01:40:24;23.00;75.10
63013;DHT22;62113;45.624;11.700;2023-09-19T01:48:12;22.90;75.00
63013;DHT22;62113;45.624;11.700;2023-09-19T01:50:58;23.00;75.00
63013;DHT22;62113;45.624;11.700;2023-09-19T01:53:30;22.90;75.00
63013;DHT22;62113;45.624;11.700;2023-09-19T01:55:58;22.90;75.00
63013;DHT22;62113;45.624;11.700;2023-09-19T02:00:55;22.90;75.00
63013;DHT22;62113;45.624;11.700;2023-09-19T02:03:21;22.90;75.10
63013;DHT22;62113;45.624;11.700;2023-09-19T02:05:51;22.80;75.00
63013;DHT22;62113;45.624;11.700;2023-09-19T02:08:19;22.80;75.00
63013;DHT22;62113;45.624;11.700;2023-09-19T02:10:45;22.80;75.00
63013;DHT22;62113;45.624;11.700;2023-09-19T02:13:17;22.70;74.80
63013;DHT22;62113;45.624;11.700;2023-09-19T02:15:43;22.70;74.80
63013;DHT22;62113;45.624;11.700;2023-09-19T02:18:10;22.70;74.90
63013;DHT22;62113;45.624;11.700;2023-09-19T02:20:37;22.70;74.80
63013;DHT22;62113;45.624;11.700;2023-09-19T02:23:03;22.70;74.80
63013;DHT22;62113;45.624;11.700;2023-09-19T02:25:28;22.70;74.80
63013;DHT22;62113;45.624;11.700;2023-09-19T02:27:54;22.70;74.70
63013;DHT22;62113;45.624;11.700;2023-09-19T02:30:20;22.70;74.80
63013;DHT22;62113;45.624;11.700;2023-09-19T02:32:51;22.70;74.90
63013;DHT22;62113;45.624;11.700;2023-09-19T02:35:16;22.70;74.90
63013;DHT22;62113;45.624;11.700;2023-09-19T02:37:45;22.70;74.80
63013;DHT22;62113;45.624;11.700;2023-09-19T02:40:10;22.60;74.80
63013;DHT22;62113;45.624;11.700;2023-09-19T02:42:52;22.60;74.80
63013;DHT22;62113;45.624;11.700;2023-09-19T02:45:18;22.60;74.80
63013;DHT22;62113;45.624;11.700;2023-09-19T02:47:44;22.60;74.70
63013;DHT22;62113;45.624;11.700;2023-09-19T02:50:10;22.60;74.70
63013;DHT22;62113;45.624;11.700;2023-09-19T02:52:36;22.60;74.70
63013;DHT22;62113;45.624;11.700;2023-09-19T02:55:03;22.60;74.40
63013;DHT22;62113;45.624;11.700;2023-09-19T02:57:29;22.50;74.50
63013;DHT22;62113;45.624;11.700;2023-09-19T02:59:58;22.40;74.40
63013;DHT22;62113;45.624;11.700;2023-09-19T03:02:24;22.40;74.50
63013;DHT22;62113;45.624;11.700;2023-09-19T03:04:49;22.50;74.60
63013;DHT22;62113;45.624;11.700;2023-09-19T03:07:16;22.40;74.60
63013;DHT22;62113;45.624;11.700;2023-09-19T03:09:42;22.40;74.60
63013;DHT22;62113;45.624;11.700;2023-09-19T03:12:08;22.40;74.70
63013;DHT22;62113;45.624;11.700;2023-09-19T03:14:34;22.40;74.60
63013;DHT22;62113;45.624;11.700;2023-09-19T03:17:00;22.40;74.70
63013;DHT22;62113;45.624;11.700;2023-09-19T03:19:26;22.40;74.60
63013;DHT22;62113;45.624;11.700;2023-09-19T03:21:52;22.40;74.50
63013;DHT22;62113;45.624;11.700;2023-09-19T03:24:18;22.40;74.60
63013;DHT22;62113;45.624;11.700;2023-09-19T03:26:44;22.40;74.50
63013;DHT22;62113;45.624;11.700;2023-09-19T03:29:10;22.40;74.50
63013;DHT22;62113;45.624;11.700;2023-09-19T03:31:36;22.40;74.50
63013;DHT22;62113;45.624;11.700;2023-09-19T03:34:02;22.30;74.50
63013;DHT22;62113;45.624;11.700;2023-09-19T03:36:29;22.30;74.60
63013;DHT22;62113;45.624;11.700;2023-09-19T03:38:54;22.30;74.60
63013;DHT22;62113;45.624;11.700;2023-09-19T03:41:20;22.30;74.50
63013;DHT22;62113;45.624;11.700;2023-09-19T03:43:45;22.30;74.60
63013;DHT22;62113;45.624;11.700;2023-09-19T03:46:11;22.30;74.60
63013;DHT22;62113;45.624;11.700;2023-09-19T03:48:38;22.30;74.60
63013;DHT22;62113;45.624;11.700;2023-09-19T03:51:03;22.30;74.60
63013;DHT22;62113;45.624;11.700;2023-09-19T03:53:28;22.20;74.60
63013;DHT22;62113;45.624;11.700;2023-09-19T03:55:54;22.20;74.50
63013;DHT22;62113;45.624;11.700;2023-09-19T03:58:20;22.20;74.60
63013;DHT22;62113;45.624;11.700;2023-09-19T04:00:45;22.20;74.60
63013;DHT22;62113;45.624;11.700;2023-09-19T04:03:11;22.20;74.60
63013;DHT22;62113;45.624;11.700;2023-09-19T04:05:46;22.20;74.60
63013;DHT22;62113;45.624;11.700;2023-09-19T04:08:14;22.20;74.60
63013;DHT22;62113;45.624;11.700;2023-09-19T04:10:43;22.20;74.50
63013;DHT22;62113;45.624;11.700;2023-09-19T04:13:09;22.20;74.60
63013;DHT22;62113;45.624;11.700;2023-09-19T04:15:34;22.10;74.50
63013;DHT22;62113;45.624;11.700;2023-09-19T04:18:00;22.10;74.40
63013;DHT22;62113;45.624;11.700;2023-09-19T04:20:25;22.00;74.30
63013;DHT22;62113;45.624;11.700;2023-09-19T04:22:51;22.00;74.40
63013;DHT22;62113;45.624;11.700;2023-09-19T04:25:16;22.00;74.40
63013;DHT22;62113;45.624;11.700;2023-09-19T04:27:43;22.00;74.40
63013;DHT22;62113;45.624;11.700;2023-09-19T04:30:09;21.90;74.50
63013;DHT22;62113;45.624;11.700;2023-09-19T04:32:36;21.90;74.40
63013;DHT22;62113;45.624;11.700;2023-09-19T04:35:05;21.90;74.40
63013;DHT22;62113;45.624;11.700;2023-09-19T04:37:35;21.80;74.30
63013;DHT22;62113;45.624;11.700;2023-09-19T04:40:00;21.90;74.30
63013;DHT22;62113;45.624;11.700;2023-09-19T04:42:26;21.90;74.30
63013;DHT22;62113;45.624;11.700;2023-09-19T04:44:52;21.80;74.30
63013;DHT22;62113;45.624;11.700;2023-09-19T04:47:18;21.80;74.30
63013;DHT22;62113;45.624;11.700;2023-09-19T04:49:44;21.80;74.20
63013;DHT22;62113;45.624;11.700;2023-09-19T04:52:09;21.80;74.20
63013;DHT22;62113;45.624;11.700;2023-09-19T04:54:35;21.80;74.20
63013;DHT22;62113;45.624;11.700;2023-09-19T04:57:00;21.80;74.30
63013;DHT22;62113;45.624;11.700;2023-09-19T04:59:26;21.80;74.20
63013;DHT22;62113;45.624;11.700;2023-09-19T05:01:53;21.80;74.20
63013;DHT22;62113;45.624;11.700;2023-09-19T05:04:19;21.70;74.00
63013;DHT22;62113;45.624;11.700;2023-09-19T05:06:44;21.70;74.10
63013;DHT22;62113;45.624;11.700;2023-09-19T05:09:11;21.70;74.10
63013;DHT22;62113;45.624;11.700;2023-09-19T05:11:36;21.70;74.20
63013;DHT22;62113;45.624;11.700;2023-09-19T05:14:04;21.70;74.20
63013;DHT22;62113;45.624;11.700;2023-09-19T05:16:29;21.80;74.10
63013;DHT22;62113;45.624;11.700;2023-09-19T05:18:57;21.80;74.10
63013;DHT22;62113;45.624;11.700;2023-09-19T05:21:23;21.80;74.20
63013;DHT22;62113;45.624;11.700;2023-09-19T05:23:51;21.70;74.10
63013;DHT22;62113;45.624;11.700;2023-09-19T05:26:17;21.80;74.20
63013;DHT22;62113;45.624;11.700;2023-09-19T05:28:43;21.90;74.10
63013;DHT22;62113;45.624;11.700;2023-09-19T05:31:08;22.00;74.00
63013;DHT22;62113;45.624;11.700;2023-09-19T05:33:34;22.00;74.00
63013;DHT22;62113;45.624;11.700;2023-09-19T05:35:59;22.10;73.90
63013;DHT22;62113;45.624;11.700;2023-09-19T05:38:25;22.20;73.90
63013;DHT22;62113;45.624;11.700;2023-09-19T05:40:52;22.30;73.80
63013;DHT22;62113;45.624;11.700;2023-09-19T05:43:18;22.50;73.60
63013;DHT22;62113;45.624;11.700;2023-09-19T05:45:44;22.60;73.50
63013;DHT22;62113;45.624;11.700;2023-09-19T05:48:14;22.70;73.30
63013;DHT22;62113;45.624;11.700;2023-09-19T05:50:40;22.80;73.40
63013;DHT22;62113;45.624;11.700;2023-09-19T05:53:06;23.00;73.20
63013;DHT22;62113;45.624;11.700;2023-09-19T05:55:32;23.10;72.90
63013;DHT22;62113;45.624;11.700;2023-09-19T05:57:58;23.30;72.70
63013;DHT22;62113;45.624;11.700;2023-09-19T06:00:23;23.80;71.90
63013;DHT22;62113;45.624;11.700;2023-09-19T06:02:53;24.70;71.50
63013;DHT22;62113;45.624;11.700;2023-09-19T06:05:18;25.80;69.90
63013;DHT22;62113;45.624;11.700;2023-09-19T06:07:44;27.20;64.30
63013;DHT22;62113;45.624;11.700;2023-09-19T06:10:09;28.60;65.00
63013;DHT22;62113;45.624;11.700;2023-09-19T06:12:41;29.80;61.80
63013;DHT22;62113;45.624;11.700;2023-09-19T06:15:11;31.10;57.30
63013;DHT22;62113;45.624;11.700;2023-09-19T06:17:47;32.20;55.20
63013;DHT22;62113;45.624;11.700;2023-09-19T06:20:14;33.20;51.10
63013;DHT22;62113;45.624;11.700;2023-09-19T06:22:43;34.20;49.30
63013;DHT22;62113;45.624;11.700;2023-09-19T06:25:11;35.10;48.20
63013;DHT22;62113;45.624;11.700;2023-09-19T06:27:38;35.70;46.20
63013;DHT22;62113;45.624;11.700;2023-09-19T06:30:03;36.50;44.80
63013;DHT22;62113;45.624;11.700;2023-09-19T06:32:29;37.20;40.60
63013;DHT22;62113;45.624;11.700;2023-09-19T06:34:55;37.80;38.60
63013;DHT22;62113;45.624;11.700;2023-09-19T06:37:21;38.50;37.20
63013;DHT22;62113;45.624;11.700;2023-09-19T06:39:47;39.10;37.00
63013;DHT22;62113;45.624;11.700;2023-09-19T06:42:15;39.70;37.10
63013;DHT22;62113;45.624;11.700;2023-09-19T06:44:42;40.20;34.70
63013;DHT22;62113;45.624;11.700;2023-09-19T06:47:08;40.70;33.10
63013;DHT22;62113;45.624;11.700;2023-09-19T06:49:35;41.10;33.60
63013;DHT22;62113;45.624;11.700;2023-09-19T06:52:00;41.60;34.90
63013;DHT22;62113;45.624;11.700;2023-09-19T06:54:26;42.00;32.10
63013;DHT22;62113;45.624;11.700;2023-09-19T06:56:59;42.40;30.80
63013;DHT22;62113;45.624;11.700;2023-09-19T06:59:25;42.80;32.50
63013;DHT22;62113;45.624;11.700;2023-09-19T07:01:50;43.20;30.10
63013;DHT22;62113;45.624;11.700;2023-09-19T07:04:16;43.50;32.20
63013;DHT22;62113;45.624;11.700;2023-09-19T07:06:42;43.90;31.70
63013;DHT22;62113;45.624;11.700;2023-09-19T07:09:08;44.30;31.40
63013;DHT22;62113;45.624;11.700;2023-09-19T07:11:34;44.50;30.40
63013;DHT22;62113;45.624;11.700;2023-09-19T07:13:59;44.70;29.00
63013;DHT22;62113;45.624;11.700;2023-09-19T07:16:24;45.00;27.30
63013;DHT22;62113;45.624;11.700;2023-09-19T07:18:57;45.00;29.30
63013;DHT22;62113;45.624;11.700;2023-09-19T07:21:23;45.20;29.40
63013;DHT22;62113;45.624;11.700;2023-09-19T07:23:49;45.70;26.10
63013;DHT22;62113;45.624;11.700;2023-09-19T07:26:15;45.70;26.40
63013;DHT22;62113;45.624;11.700;2023-09-19T07:28:40;45.90;28.30
63013;DHT22;62113;45.624;11.700;2023-09-19T07:31:06;46.20;27.20
63013;DHT22;62113;45.624;11.700;2023-09-19T07:33:36;46.50;24.60
63013;DHT22;62113;45.624;11.700;2023-09-19T07:36:02;46.60;27.50
63013;DHT22;62113;45.624;11.700;2023-09-19T07:38:27;46.60;26.60
63013;DHT22;62113;45.624;11.700;2023-09-19T07:40:53;46.40;25.10
63013;DHT22;62113;45.624;11.700;2023-09-19T07:43:18;45.90;25.90
63013;DHT22;62113;45.624;11.700;2023-09-19T07:45:44;45.60;26.20
63013;DHT22;62113;45.624;11.700;2023-09-19T07:48:09;45.30;27.50
63013;DHT22;62113;45.624;11.700;2023-09-19T07:50:39;45.10;27.70
63013;DHT22;62113;45.624;11.700;2023-09-19T07:53:05;44.70;27.30
63013;DHT22;62113;45.624;11.700;2023-09-19T07:55:31;44.50;27.10
63013;DHT22;62113;45.624;11.700;2023-09-19T07:57:59;44.40;27.30
63013;DHT22;62113;45.624;11.700;2023-09-19T08:00:24;44.40;27.20
63013;DHT22;62113;45.624;11.700;2023-09-19T08:02:50;43.90;27.40
63013;DHT22;62113;45.624;11.700;2023-09-19T08:05:17;44.10;28.10
63013;DHT22;62113;45.624;11.700;2023-09-19T08:07:44;44.40;28.50
63013;DHT22;62113;45.624;11.700;2023-09-19T08:10:14;44.60;27.20
63013;DHT22;62113;45.624;11.700;2023-09-19T08:12:41;44.40;28.00
63013;DHT22;62113;45.624;11.700;2023-09-19T08:15:20;44.20;28.20
63013;DHT22;62113;45.624;11.700;2023-09-19T08:17:46;44.20;28.50
63013;DHT22;62113;45.624;11.700;2023-09-19T08:20:11;44.20;28.50
63013;DHT22;62113;45.624;11.700;2023-09-19T08:22:46;44.70;28.60
63013;DHT22;62113;45.624;11.700;2023-09-19T08:25:12;45.00;27.30
63013;DHT22;62113;45.624;11.700;2023-09-19T08:27:38;45.00;27.50
63013;DHT22;62113;45.624;11.700;2023-09-19T08:30:04;44.90;27.10
63013;DHT22;62113;45.624;11.700;2023-09-19T08:32:29;44.50;26.90
63013;DHT22;62113;45.624;11.700;2023-09-19T08:34:55;44.60;27.80
63013;DHT22;62113;45.624;11.700;2023-09-19T08:37:20;44.30;27.80
63013;DHT22;62113;45.624;11.700;2023-09-19T08:39:46;44.40;27.10
63013;DHT22;62113;45.624;11.700;2023-09-19T08:42:12;44.50;26.70
63013;DHT22;62113;45.624;11.700;2023-09-19T08:44:38;44.00;27.70
63013;DHT22;62113;45.624;11.700;2023-09-19T08:47:09;43.80;28.30
63013;DHT22;62113;45.624;11.700;2023-09-19T08:49:51;43.30;28.30
63013;DHT22;62113;45.624;11.700;2023-09-19T08:52:22;42.10;29.80
63013;DHT22;62113;45.624;11.700;2023-09-19T08:54:52;40.20;32.00
63013;DHT22;62113;45.624;11.700;2023-09-19T08:57:18;38.90;33.70
63013;DHT22;62113;45.624;11.700;2023-09-19T08:59:47;37.80;35.50
63013;DHT22;62113;45.624;11.700;2023-09-19T09:02:13;36.80;37.30
63013;DHT22;62113;45.624;11.700;2023-09-19T09:04:40;35.90;39.00
63013;DHT22;62113;45.624;11.700;2023-09-19T09:07:09;35.10;40.10
63013;DHT22;62113;45.624;11.700;2023-09-19T09:09:35;34.60;41.00
63013;DHT22;62113;45.624;11.700;2023-09-19T09:12:01;34.30;42.00
63013;DHT22;62113;45.624;11.700;2023-09-19T09:14:27;34.00;43.50
63013;DHT22;62113;45.624;11.700;2023-09-19T09:16:55;33.60;43.50
63013;DHT22;62113;45.624;11.700;2023-09-19T09:19:24;33.40;44.30
63013;DHT22;62113;45.624;11.700;2023-09-19T09:21:50;33.10;46.00
63013;DHT22;62113;45.624;11.700;2023-09-19T09:24:29;32.70;46.30
63013;DHT22;62113;45.624;11.700;2023-09-19T09:26:55;32.30;47.20
63013;DHT22;62113;45.624;11.700;2023-09-19T09:32:19;32.20;47.70
63013;DHT22;62113;45.624;11.700;2023-09-19T09:34:46;32.20;47.40
63013;DHT22;62113;45.624;11.700;2023-09-19T09:37:16;32.00;47.40
63013;DHT22;62113;45.624;11.700;2023-09-19T09:39:51;32.00;47.50
63013;DHT22;62113;45.624;11.700;2023-09-19T09:42:36;31.90;47.90
63013;DHT22;62113;45.624;11.700;2023-09-19T09:48:02;31.70;48.20
63013;DHT22;62113;45.624;11.700;2023-09-19T09:50:45;31.70;49.10
63013;DHT22;62113;45.624;11.700;2023-09-19T09:53:24;31.40;48.10
63013;DHT22;62113;45.624;11.700;2023-09-19T09:58:35;31.20;49.00
63013;DHT22;62113;45.624;11.700;2023-09-19T10:01:02;31.00;49.30
63013;DHT22;62113;45.624;11.700;2023-09-19T10:03:40;30.90;49.40
63013;DHT22;62113;45.624;11.700;2023-09-19T10:06:10;30.70;50.10
63013;DHT22;62113;45.624;11.700;2023-09-19T10:09:03;30.70;50.40
63013;DHT22;62113;45.624;11.700;2023-09-19T10:12:05;30.80;50.40
63013;DHT22;62113;45.624;11.700;2023-09-19T10:14:32;30.90;49.70
63013;DHT22;62113;45.624;11.700;2023-09-19T10:17:00;30.90;49.40
63013;DHT22;62113;45.624;11.700;2023-09-19T10:19:30;30.80;49.40
63013;DHT22;62113;45.624;11.700;2023-09-19T10:22:01;30.70;49.60
63013;DHT22;62113;45.624;11.700;2023-09-19T10:24:28;30.70;50.60
63013;DHT22;62113;45.624;11.700;2023-09-19T10:26:53;30.70;50.70
63013;DHT22;62113;45.624;11.700;2023-09-19T10:29:20;30.70;49.20
63013;DHT22;62113;45.624;11.700;2023-09-19T10:31:49;30.70;49.80
63013;DHT22;62113;45.624;11.700;2023-09-19T10:34:18;30.70;49.70
63013;DHT22;62113;45.624;11.700;2023-09-19T10:36:46;30.70;49.30
63013;DHT22;62113;45.624;11.700;2023-09-19T10:39:16;30.70;49.00
63013;DHT22;62113;45.624;11.700;2023-09-19T10:41:50;30.60;50.20
63013;DHT22;62113;45.624;11.700;2023-09-19T10:44:24;30.50;50.10
63013;DHT22;62113;45.624;11.700;2023-09-19T10:46:53;30.60;50.20
63013;DHT22;62113;45.624;11.700;2023-09-19T10:49:20;30.60;50.10
63013;DHT22;62113;45.624;11.700;2023-09-19T10:51:46;30.70;49.50
63013;DHT22;62113;45.624;11.700;2023-09-19T10:54:15;30.70;49.40
63013;DHT22;62113;45.624;11.700;2023-09-19T10:56:44;30.70;49.00
63013;DHT22;62113;45.624;11.700;2023-09-19T10:59:17;30.70;49.40
63013;DHT22;62113;45.624;11.700;2023-09-19T11:01:50;30.50;49.70
63013;DHT22;62113;45.624;11.700;2023-09-19T11:07:05;30.50;49.30
63013;DHT22;62113;45.624;11.700;2023-09-19T11:09:48;30.50;49.60
63013;DHT22;62113;45.624;11.700;2023-09-19T11:14:57;30.60;49.50
63013;DHT22;62113;45.624;11.700;2023-09-19T11:17:30;30.50;49.40
63013;DHT22;62113;45.624;11.700;2023-09-19T11:30:52;30.60;47.50
63013;DHT22;62113;45.624;11.700;2023-09-19T11:33:23;30.60;48.20
63013;DHT22;62113;45.624;11.700;2023-09-19T11:36:00;30.50;49.40
63013;DHT22;62113;45.624;11.700;2023-09-19T11:44:31;30.50;49.80
63013;DHT22;62113;45.624;11.700;2023-09-19T11:49:16;30.20;49.60
63013;DHT22;62113;45.624;11.700;2023-09-19T11:51:46;30.20;49.90
63013;DHT22;62113;45.624;11.700;2023-09-19T11:54:13;30.30;49.50
63013;DHT22;62113;45.624;11.700;2023-09-19T11:56:50;30.30;49.30
63013;DHT22;62113;45.624;11.700;2023-09-19T11:59:19;30.40;49.20
63013;DHT22;62113;45.624;11.700;2023-09-19T12:01:50;30.50;49.30
63013;DHT22;62113;45.624;11.700;2023-09-19T12:04:20;30.40;49.50
63013;DHT22;62113;45.624;11.700;2023-09-19T12:06:49;30.50;49.90
63013;DHT22;62113;45.624;11.700;2023-09-19T12:09:22;30.50;50.00
63013;DHT22;62113;45.624;11.700;2023-09-19T12:11:47;30.50;48.80
63013;DHT22;62113;45.624;11.700;2023-09-19T12:14:24;30.50;48.80
63013;DHT22;62113;45.624;11.700;2023-09-19T12:16:54;30.50;47.80
63013;DHT22;62113;45.624;11.700;2023-09-19T12:19:21;30.40;49.70
63013;DHT22;62113;45.624;11.700;2023-09-19T12:22:02;30.00;50.60
63013;DHT22;62113;45.624;11.700;2023-09-19T12:24:32;29.80;51.30
63013;DHT22;62113;45.624;11.700;2023-09-19T12:27:04;29.60;51.80
63013;DHT22;62113;45.624;11.700;2023-09-19T12:29:31;29.70;49.70
63013;DHT22;62113;45.624;11.700;2023-09-19T12:31:58;29.80;49.90
63013;DHT22;62113;45.624;11.700;2023-09-19T12:34:27;30.00;49.50
63013;DHT22;62113;45.624;11.700;2023-09-19T12:37:06;30.10;49.00
63013;DHT22;62113;45.624;11.700;2023-09-19T12:39:43;30.20;49.30
63013;DHT22;62113;45.624;11.700;2023-09-19T12:42:14;30.30;48.60
63013;DHT22;62113;45.624;11.700;2023-09-19T12:44:40;30.40;48.70
63013;DHT22;62113;45.624;11.700;2023-09-19T12:47:12;30.20;47.40
63013;DHT22;62113;45.624;11.700;2023-09-19T12:52:23;30.40;48.20
63013;DHT22;62113;45.624;11.700;2023-09-19T12:54:51;30.60;48.10
63013;DHT22;62113;45.624;11.700;2023-09-19T12:57:23;30.70;47.20
63013;DHT22;62113;45.624;11.700;2023-09-19T12:59:51;30.70;47.60
63013;DHT22;62113;45.624;11.700;2023-09-19T13:02:17;30.90;47.80
63013;DHT22;62113;45.624;11.700;2023-09-19T13:04:51;30.90;47.60
63013;DHT22;62113;45.624;11.700;2023-09-19T13:10:04;31.00;47.30
63013;DHT22;62113;45.624;11.700;2023-09-19T13:12:39;31.00;46.90
63013;DHT22;62113;45.624;11.700;2023-09-19T13:15:12;30.90;47.10
63013;DHT22;62113;45.624;11.700;2023-09-19T13:17:45;30.90;46.90
63013;DHT22;62113;45.624;11.700;2023-09-19T13:20:21;30.80;47.20
63013;DHT22;62113;45.624;11.700;2023-09-19T13:22:52;30.80;47.60
63013;DHT22;62113;45.624;11.700;2023-09-19T13:25:25;30.70;47.90
63013;DHT22;62113;45.624;11.700;2023-09-19T13:27:53;30.70;47.50
63013;DHT22;62113;45.624;11.700;2023-09-19T13:30:24;30.60;47.70
63013;DHT22;62113;45.624;11.700;2023-09-19T13:32:50;30.50;47.20
63013;DHT22;62113;45.624;11.700;2023-09-19T13:35:16;30.30;47.40
63013;DHT22;62113;45.624;11.700;2023-09-19T13:37:42;30.40;47.80
63013;DHT22;62113;45.624;11.700;2023-09-19T13:40:11;30.30;47.90
63013;DHT22;62113;45.624;11.700;2023-09-19T13:42:37;30.30;48.10
63013;DHT22;62113;45.624;11.700;2023-09-19T13:45:03;30.20;48.40
63013;DHT22;62113;45.624;11.700;2023-09-19T13:47:33;30.20;48.80
63013;DHT22;62113;45.624;11.700;2023-09-19T13:49:59;30.20;49.00
63013;DHT22;62113;45.624;11.700;2023-09-19T13:52:25;30.20;49.10
63013;DHT22;62113;45.624;11.700;2023-09-19T13:54:53;30.10;49.10
63013;DHT22;62113;45.624;11.700;2023-09-19T13:57:19;30.10;49.00
63013;DHT22;62113;45.624;11.700;2023-09-19T13:59:44;30.10;47.70
63013;DHT22;62113;45.624;11.700;2023-09-19T14:02:10;30.10;49.20
63013;DHT22;62113;45.624;11.700;2023-09-19T14:04:35;30.00;48.90
63013;DHT22;62113;45.624;11.700;2023-09-19T14:07:01;30.00;48.80
63013;DHT22;62113;45.624;11.700;2023-09-19T14:09:27;30.00;49.00
63013;DHT22;62113;45.624;11.700;2023-09-19T14:11:52;30.00;49.20
63013;DHT22;62113;45.624;11.700;2023-09-19T14:14:18;30.00;49.40
63013;DHT22;62113;45.624;11.700;2023-09-19T14:16:44;29.90;49.60
63013;DHT22;62113;45.624;11.700;2023-09-19T14:19:10;30.00;49.80
63013;DHT22;62113;45.624;11.700;2023-09-19T14:21:35;29.90;49.80
63013;DHT22;62113;45.624;11.700;2023-09-19T14:24:02;29.90;49.40
63013;DHT22;62113;45.624;11.700;2023-09-19T14:26:27;29.90;49.20
63013;DHT22;62113;45.624;11.700;2023-09-19T14:28:53;29.90;49.30
63013;DHT22;62113;45.624;11.700;2023-09-19T14:31:18;30.00;49.30
63013;DHT22;62113;45.624;11.700;2023-09-19T14:33:45;30.00;49.00
63013;DHT22;62113;45.624;11.700;2023-09-19T14:36:10;30.00;48.70
63013;DHT22;62113;45.624;11.700;2023-09-19T14:38:37;30.10;48.70
63013;DHT22;62113;45.624;11.700;2023-09-19T14:41:03;30.10;47.40
63013;DHT22;62113;45.624;11.700;2023-09-19T14:43:28;30.10;47.40
63013;DHT22;62113;45.624;11.700;2023-09-19T14:46:02;30.10;48.20
63013;DHT22;62113;45.624;11.700;2023-09-19T14:48:27;30.10;48.50
63013;DHT22;62113;45.624;11.700;2023-09-19T14:50:53;30.10;48.60
63013;DHT22;62113;45.624;11.700;2023-09-19T14:53:20;30.10;48.10
63013;DHT22;62113;45.624;11.700;2023-09-19T14:55:46;30.10;48.00
63013;DHT22;62113;45.624;11.700;2023-09-19T14:58:13;30.10;47.10
63013;DHT22;62113;45.624;11.700;2023-09-19T15:00:39;30.10;47.60
63013;DHT22;62113;45.624;11.700;2023-09-19T15:03:04;30.20;47.30
63013;DHT22;62113;45.624;11.700;2023-09-19T15:05:30;30.10;47.80
63013;DHT22;62113;45.624;11.700;2023-09-19T15:07:56;30.10;46.60
63013;DHT22;62113;45.624;11.700;2023-09-19T15:10:22;30.10;46.90
63013;DHT22;62113;45.624;11.700;2023-09-19T15:12:48;30.00;47.90
63013;DHT22;62113;45.624;11.700;2023-09-19T15:15:13;30.10;48.10
63013;DHT22;62113;45.624;11.700;2023-09-19T15:17:39;30.10;48.20
63013;DHT22;62113;45.624;11.700;2023-09-19T15:20:05;30.00;48.20
63013;DHT22;62113;45.624;11.700;2023-09-19T15:22:34;30.00;46.60
63013;DHT22;62113;45.624;11.700;2023-09-19T15:25:00;30.00;46.80
63013;DHT22;62113;45.624;11.700;2023-09-19T15:27:27;30.00;47.70
63013;DHT22;62113;45.624;11.700;2023-09-19T15:29:53;30.00;47.80
63013;DHT22;62113;45.624;11.700;2023-09-19T15:32:18;30.00;47.30
63013;DHT22;62113;45.624;11.700;2023-09-19T15:34:44;30.00;46.80
63013;DHT22;62113;45.624;11.700;2023-09-19T15:37:09;30.00;47.60
63013;DHT22;62113;45.624;11.700;2023-09-19T15:39:35;30.00;47.70
63013;DHT22;62113;45.624;11.700;2023-09-19T15:42:02;30.00;48.00
63013;DHT22;62113;45.624;11.700;2023-09-19T15:44:27;29.80;48.20
63013;DHT22;62113;45.624;11.700;2023-09-19T15:46:53;29.40;48.10
63013;DHT22;62113;45.624;11.700;2023-09-19T15:49:18;29.30;48.20
63013;DHT22;62113;45.624;11.700;2023-09-19T15:51:44;29.10;48.40
63013;DHT22;62113;45.624;11.700;2023-09-19T15:54:10;28.90;49.40
63013;DHT22;62113;45.624;11.700;2023-09-19T15:56:38;28.90;49.60
63013;DHT22;62113;45.624;11.700;2023-09-19T15:59:06;28.90;50.20
63013;DHT22;62113;45.624;11.700;2023-09-19T16:01:34;28.80;50.40
63013;DHT22;62113;45.624;11.700;2023-09-19T16:04:00;28.70;50.50
63013;DHT22;62113;45.624;11.700;2023-09-19T16:06:26;28.70;50.80
63013;DHT22;62113;45.624;11.700;2023-09-19T16:08:53;28.70;51.00
63013;DHT22;62113;45.624;11.700;2023-09-19T16:11:21;28.70;51.30
63013;DHT22;62113;45.624;11.700;2023-09-19T16:13:47;28.70;51.80
63013;DHT22;62113;45.624;11.700;2023-09-19T16:16:13;28.60;52.40
63013;DHT22;62113;45.624;11.700;2023-09-19T16:18:48;28.40;52.60
63013;DHT22;62113;45.624;11.700;2023-09-19T16:21:13;28.40;52.70